Time;durP1;ratioP1;P1;durP2;ratioP2;P2;SDS_P1;SDS_P2;PMS_P1;PMS_P2;Temp;Humidity;BMP_temperature;BMP_pressure;BME280_temperature;BME280_humidity;BME280_pressure;Samples;Min_cycle;Max_cycle;Signal;HPM_P1;HPM_P2
2022/03/15 00:01:33;;;;;;;8.93;5.50;;;11.00;75.90;;;;;;5036626;28;20446;-71
2022/03/15 00:04:01;;;;;;;9.00;5.47;;;11.00;76.10;;;;;;5036183;28;20443;-72
2022/03/15 00:06:28;;;;;;;6.13;5.50;;;11.00;76.50;;;;;;5036554;28;20859;-72
2022/03/15 00:08:55;;;;;;;9.00;4.83;;;10.90;76.40;;;;;;5036238;28;20482;-72
2022/03/15 00:11:22;;;;;;;14.70;5.87;;;10.90;76.70;;;;;;5035374;28;20466;-72
2022/03/15 00:13:49;;;;;;;9.27;5.60;;;10.90;76.80;;;;;;5035332;28;20454;-71
2022/03/15 00:16:16;;;;;;;12.07;5.33;;;10.90;76.70;;;;;;5036091;28;20568;-71
2022/03/15 00:18:43;;;;;;;5.50;4.90;;;10.90;76.70;;;;;;5036110;28;20450;-72
2022/03/15 00:21:12;;;;;;;5.63;5.13;;;10.90;76.70;;;;;;5036058;28;20446;-71
2022/03/15 00:23:39;;;;;;;13.10;6.20;;;10.90;76.80;;;;;;5035881;28;20441;-71
2022/03/15 00:26:06;;;;;;;12.33;6.70;;;10.80;77.00;;;;;;5035546;28;20490;-71
2022/03/15 00:28:33;;;;;;;12.87;6.33;;;10.80;77.10;;;;;;5035363;28;20823;-72
2022/03/15 00:31:00;;;;;;;9.27;6.30;;;10.80;77.30;;;;;;5035421;28;20885;-71
2022/03/15 00:33:29;;;;;;;15.23;6.73;;;10.80;77.40;;;;;;5035322;28;20949;-71
2022/03/15 00:35:56;;;;;;;10.30;6.30;;;10.70;77.50;;;;;;5035280;28;20879;-71
2022/03/15 00:38:25;;;;;;;12.50;6.73;;;10.70;77.60;;;;;;5036178;28;20545;-71
2022/03/15 00:40:52;;;;;;;12.33;6.20;;;10.70;77.70;;;;;;5035694;28;20874;-71
2022/03/15 00:43:18;;;;;;;11.40;6.33;;;10.70;77.60;;;;;;5035310;28;20457;-71
2022/03/15 00:45:45;;;;;;;9.20;6.53;;;10.60;77.50;;;;;;5035329;28;20486;-72
2022/03/15 00:48:13;;;;;;;8.80;6.13;;;10.60;77.50;;;;;;5034231;28;20461;-72
2022/03/15 00:50:41;;;;;;;12.40;7.10;;;10.60;77.70;;;;;;5035101;28;20450;-71
2022/03/15 00:53:09;;;;;;;15.73;7.30;;;10.60;78.00;;;;;;5035234;28;20450;-72
2022/03/15 00:55:38;;;;;;;12.83;7.10;;;10.50;78.00;;;;;;5035160;28;20470;-71
2022/03/15 00:58:06;;;;;;;16.63;7.70;;;10.50;78.00;;;;;;5035409;28;20482;-71
2022/03/15 01:00:35;;;;;;;12.57;8.00;;;10.50;78.30;;;;;;5034962;28;20945;-71
2022/03/15 01:03:02;;;;;;;12.47;7.73;;;10.50;78.50;;;;;;5034908;28;20451;-70
2022/03/15 01:05:29;;;;;;;10.40;8.00;;;10.40;78.50;;;;;;5035044;28;20490;-72
2022/03/15 01:07:56;;;;;;;9.10;7.63;;;10.40;78.80;;;;;;5035151;28;20497;-72
2022/03/15 01:10:24;;;;;;;9.90;6.73;;;10.40;79.20;;;;;;5034700;28;20462;-72
2022/03/15 01:12:53;;;;;;;12.10;8.03;;;10.30;79.40;;;;;;5035068;28;20446;-72
2022/03/15 01:15:21;;;;;;;13.40;8.47;;;10.30;79.60;;;;;;5034887;28;20471;-72
2022/03/15 01:17:48;;;;;;;13.10;8.23;;;10.30;79.60;;;;;;5034994;28;20469;-72
2022/03/15 01:20:14;;;;;;;13.73;8.60;;;10.30;79.70;;;;;;5035688;28;20454;-72
2022/03/15 01:22:41;;;;;;;12.13;8.03;;;10.30;79.80;;;;;;5034881;28;20816;-71
2022/03/15 01:25:09;;;;;;;9.73;7.70;;;10.30;80.00;;;;;;5034845;28;20469;-71
2022/03/15 01:27:36;;;;;;;14.37;7.83;;;10.20;79.90;;;;;;5034539;28;20447;-71
2022/03/15 01:30:06;;;;;;;11.20;7.73;;;10.20;79.80;;;;;;5035109;28;20462;-71
2022/03/15 01:32:33;;;;;;;9.63;7.50;;;10.20;79.80;;;;;;5034937;28;20454;-72
2022/03/15 01:35:00;;;;;;;13.93;8.43;;;10.20;80.00;;;;;;5034741;28;20482;-70
2022/03/15 01:37:26;;;;;;;10.67;8.40;;;10.20;80.20;;;;;;5034464;28;20443;-72
2022/03/15 01:39:53;;;;;;;12.90;9.17;;;10.20;80.40;;;;;;5034437;28;20858;-72
2022/03/15 01:42:20;;;;;;;12.47;8.50;;;10.10;80.50;;;;;;5034815;28;20457;-71
2022/03/15 01:44:49;;;;;;;10.43;8.33;;;10.20;80.90;;;;;;5034972;28;20474;-71
2022/03/15 01:47:18;;;;;;;15.77;10.33;;;10.10;80.90;;;;;;5034687;28;20536;-71
2022/03/15 01:49:45;;;;;;;10.70;9.03;;;10.10;81.00;;;;;;5034995;28;20541;-71
2022/03/15 01:52:15;;;;;;;13.50;9.40;;;10.10;81.10;;;;;;5034515;28;20489;-71
2022/03/15 01:54:42;;;;;;;11.30;8.80;;;10.10;81.30;;;;;;5034239;28;20510;-71
2022/03/15 01:57:10;;;;;;;13.80;9.17;;;10.10;81.40;;;;;;5034823;28;20457;-71
2022/03/15 01:59:38;;;;;;;12.17;9.10;;;10.10;81.40;;;;;;5035560;28;20446;-71
2022/03/15 02:02:05;;;;;;;10.50;7.90;;;10.10;81.40;;;;;;5038351;28;20464;-71
2022/03/15 02:04:34;;;;;;;11.93;8.77;;;10.10;81.40;;;;;;5038527;28;20462;-71
2022/03/15 02:07:03;;;;;;;12.87;9.80;;;10.10;81.70;;;;;;5038531;28;20997;-72
2022/03/15 02:09:30;;;;;;;12.80;8.90;;;10.10;81.90;;;;;;5038626;28;20450;-71
2022/03/15 02:11:58;;;;;;;17.33;9.33;;;10.10;82.20;;;;;;5037838;28;20458;-71
2022/03/15 02:14:25;;;;;;;14.13;9.53;;;10.00;82.10;;;;;;5037574;28;20470;-71
2022/03/15 02:16:52;;;;;;;15.07;10.43;;;10.00;82.10;;;;;;5038816;28;20442;-72
2022/03/15 02:19:19;;;;;;;11.43;9.23;;;10.00;83.00;;;;;;5039054;28;20462;-72
2022/03/15 02:21:47;;;;;;;13.00;8.27;;;10.00;82.50;;;;;;5038211;28;20949;-70
2022/03/15 02:24:14;;;;;;;10.73;9.63;;;10.00;82.60;;;;;;5038427;28;20473;-71
2022/03/15 02:26:41;;;;;;;12.03;8.83;;;10.00;82.50;;;;;;5037739;28;20988;-70
2022/03/15 02:29:09;;;;;;;13.30;9.10;;;10.00;82.60;;;;;;5038603;28;20557;-71
2022/03/15 02:31:36;;;;;;;10.70;9.00;;;10.00;82.50;;;;;;5038528;28;20443;-71
2022/03/15 02:34:03;;;;;;;11.20;9.10;;;10.00;82.40;;;;;;5038214;28;20854;-72
2022/03/15 02:36:30;;;;;;;10.10;8.13;;;9.90;83.70;;;;;;5038503;28;20450;-72
2022/03/15 02:38:58;;;;;;;14.20;8.53;;;9.90;84.00;;;;;;5038141;28;20454;-71
2022/03/15 02:41:25;;;;;;;13.00;9.30;;;9.90;83.80;;;;;;5039049;28;20458;-72
2022/03/15 02:43:51;;;;;;;12.43;8.30;;;9.90;83.80;;;;;;5039129;28;20453;-71
2022/03/15 02:46:18;;;;;;;12.37;9.17;;;9.90;84.20;;;;;;5038865;28;20485;-71
2022/03/15 02:48:45;;;;;;;9.93;8.77;;;9.90;84.30;;;;;;5039055;28;20454;-71
2022/03/15 02:51:12;;;;;;;11.23;8.70;;;9.90;84.40;;;;;;5039260;28;20442;-72
2022/03/15 02:53:41;;;;;;;10.77;9.30;;;9.90;84.30;;;;;;5039806;28;20450;-71
2022/03/15 02:56:11;;;;;;;11.37;9.50;;;9.90;84.30;;;;;;5038039;28;20466;-70
2022/03/15 02:58:38;;;;;;;15.40;10.63;;;9.90;84.60;;;;;;5045608;28;20552;-71
2022/03/15 03:01:05;;;;;;;12.27;8.80;;;9.90;84.70;;;;;;5046078;28;20453;-71
2022/03/15 03:03:32;;;;;;;14.63;9.53;;;9.80;84.70;;;;;;5045196;28;20454;-70
2022/03/15 03:05:59;;;;;;;11.83;9.13;;;9.80;84.70;;;;;;5046519;28;20486;-72
2022/03/15 03:08:27;;;;;;;13.03;9.73;;;9.80;85.00;;;;;;5044611;28;20458;-71
2022/03/15 03:10:54;;;;;;;12.10;8.73;;;9.80;85.20;;;;;;5038172;28;20465;-72
2022/03/15 03:13:24;;;;;;;11.60;8.30;;;9.80;85.10;;;;;;5037589;28;20455;-70
2022/03/15 03:15:52;;;;;;;12.87;8.97;;;9.80;85.20;;;;;;5038035;28;20536;-70
2022/03/15 03:18:19;;;;;;;15.30;9.13;;;9.80;85.10;;;;;;5037382;28;20492;-70
2022/03/15 03:20:47;;;;;;;11.30;8.70;;;9.80;85.10;;;;;;5037259;28;20489;-70
2022/03/15 03:23:15;;;;;;;12.73;8.47;;;9.80;85.30;;;;;;5037193;28;20489;-70
2022/03/15 03:25:42;;;;;;;11.17;8.20;;;9.80;85.30;;;;;;5035801;28;21035;-70
2022/03/15 03:28:09;;;;;;;13.63;8.00;;;9.80;85.20;;;;;;5035923;28;20453;-71
2022/03/15 03:30:37;;;;;;;11.40;8.03;;;9.80;85.20;;;;;;5036353;28;20453;-71
2022/03/15 03:33:04;;;;;;;11.30;8.57;;;9.80;85.50;;;;;;5037084;28;20504;-71
2022/03/15 03:35:31;;;;;;;14.17;8.33;;;9.80;85.50;;;;;;5036902;28;20482;-71
2022/03/15 03:37:58;;;;;;;12.70;7.73;;;9.80;85.50;;;;;;5037050;28;20465;-71
2022/03/15 03:40:26;;;;;;;9.00;8.00;;;9.80;85.70;;;;;;5036809;28;20554;-72
2022/03/15 03:42:52;;;;;;;13.13;8.33;;;9.80;85.90;;;;;;5036544;28;20489;-72
2022/03/15 03:45:19;;;;;;;11.83;8.47;;;9.80;85.80;;;;;;5037050;28;20470;-72
2022/03/15 03:47:48;;;;;;;13.87;8.07;;;9.70;85.80;;;;;;5036991;28;20486;-72
2022/03/15 03:50:14;;;;;;;13.70;8.20;;;9.80;86.00;;;;;;5036833;28;20451;-72
2022/03/15 03:52:41;;;;;;;13.33;8.13;;;9.80;85.90;;;;;;5036517;28;20453;-72
2022/03/15 03:55:09;;;;;;;15.97;8.83;;;9.80;86.00;;;;;;5036774;28;20510;-72
2022/03/15 03:57:37;;;;;;;13.33;7.80;;;9.80;86.30;;;;;;5036827;28;20525;-72
2022/03/15 04:00:04;;;;;;;13.03;8.13;;;9.80;86.10;;;;;;5036886;28;20830;-71
2022/03/15 04:02:31;;;;;;;11.37;7.43;;;9.80;86.00;;;;;;5036787;28;20473;-71
2022/03/15 04:05:00;;;;;;;12.10;8.30;;;9.80;86.10;;;;;;5036339;28;20478;-70
2022/03/15 04:07:29;;;;;;;13.97;8.80;;;9.70;86.20;;;;;;5036351;28;20489;-71
2022/03/15 04:09:56;;;;;;;12.20;8.93;;;9.70;86.30;;;;;;5035989;28;20458;-71
2022/03/15 04:12:24;;;;;;;11.50;8.93;;;9.80;86.60;;;;;;5037057;28;20447;-71
2022/03/15 04:14:51;;;;;;;16.50;9.40;;;9.70;86.50;;;;;;5036394;28;20474;-71
2022/03/15 04:17:17;;;;;;;17.47;10.53;;;9.70;86.60;;;;;;5036066;28;20446;-71
2022/03/15 04:19:44;;;;;;;12.77;7.90;;;9.70;86.80;;;;;;5035805;28;20462;-71
2022/03/15 04:22:12;;;;;;;13.10;8.00;;;9.70;87.10;;;;;;5036000;28;20818;-71
2022/03/15 04:24:39;;;;;;;9.70;7.40;;;9.70;87.20;;;;;;5035620;28;21012;-70
2022/03/15 04:27:06;;;;;;;10.23;7.40;;;9.70;87.40;;;;;;5035392;28;20489;-70
2022/03/15 04:29:33;;;;;;;11.63;7.70;;;9.70;87.60;;;;;;5035484;28;20457;-70
2022/03/15 04:31:59;;;;;;;9.87;7.47;;;9.70;87.70;;;;;;5035477;28;20455;-71
2022/03/15 04:34:27;;;;;;;10.50;8.13;;;9.70;87.90;;;;;;5035256;28;20522;-70
2022/03/15 04:36:55;;;;;;;13.47;7.83;;;9.70;88.00;;;;;;5035225;28;20504;-70
2022/03/15 04:39:23;;;;;;;15.23;7.63;;;9.70;88.20;;;;;;5035230;28;20458;-70
2022/03/15 04:41:50;;;;;;;8.77;7.53;;;9.60;88.30;;;;;;5035041;28;20477;-71
2022/03/15 04:44:17;;;;;;;9.30;8.37;;;9.60;88.60;;;;;;5035508;28;20528;-71
2022/03/15 04:46:44;;;;;;;11.37;8.30;;;9.60;88.90;;;;;;5035441;28;20847;-72
2022/03/15 04:49:11;;;;;;;9.73;7.73;;;9.60;89.10;;;;;;5034774;28;20459;-71
2022/03/15 04:51:38;;;;;;;10.23;7.57;;;9.60;89.10;;;;;;5035201;28;20470;-71
2022/03/15 04:54:04;;;;;;;10.73;7.80;;;9.60;89.10;;;;;;5035769;28;20477;-71
2022/03/15 04:56:33;;;;;;;11.90;8.17;;;9.70;89.20;;;;;;5034945;28;20465;-72
2022/03/15 04:58:59;;;;;;;13.40;7.73;;;9.70;89.30;;;;;;5035057;28;20819;-71
2022/03/15 05:01:26;;;;;;;11.63;8.00;;;9.60;89.10;;;;;;5035049;28;20446;-71
2022/03/15 05:03:53;;;;;;;12.13;7.83;;;9.70;89.30;;;;;;5034331;28;20961;-71
2022/03/15 05:06:20;;;;;;;14.57;8.73;;;9.60;89.50;;;;;;5034426;28;20446;-72
2022/03/15 05:08:48;;;;;;;12.23;7.33;;;9.60;89.70;;;;;;5034917;28;20446;-72
2022/03/15 05:11:15;;;;;;;12.33;7.90;;;9.60;89.70;;;;;;5034379;28;20520;-71
2022/03/15 05:13:45;;;;;;;12.23;8.70;;;9.70;89.80;;;;;;5034772;28;20474;-71
2022/03/15 05:16:17;;;;;;;13.33;8.50;;;9.70;90.00;;;;;;5034116;28;20894;-71
2022/03/15 05:18:45;;;;;;;13.10;8.50;;;9.70;90.00;;;;;;5034868;28;20446;-71
2022/03/15 05:21:15;;;;;;;11.87;7.90;;;9.70;89.90;;;;;;5034958;28;20830;-71
2022/03/15 05:23:43;;;;;;;16.07;8.73;;;9.60;89.90;;;;;;5034682;28;20504;-71
2022/03/15 05:26:09;;;;;;;13.07;7.73;;;9.70;90.00;;;;;;5034385;28;20490;-70
2022/03/15 05:28:36;;;;;;;16.30;9.00;;;9.70;89.70;;;;;;5034553;28;20488;-72
2022/03/15 05:31:05;;;;;;;14.07;8.50;;;9.70;89.50;;;;;;5034507;28;20454;-72
2022/03/15 05:33:32;;;;;;;8.90;7.67;;;9.70;89.40;;;;;;5034335;28;20442;-70
2022/03/15 05:35:59;;;;;;;14.33;8.47;;;9.70;89.50;;;;;;5033698;28;20473;-70
2022/03/15 05:38:26;;;;;;;16.90;8.57;;;9.70;89.60;;;;;;5034433;28;20442;-72
2022/03/15 05:40:54;;;;;;;8.50;7.60;;;9.70;89.60;;;;;;5034261;28;20458;-72
2022/03/15 05:43:21;;;;;;;13.33;8.57;;;9.60;89.60;;;;;;5034086;28;20450;-71
2022/03/15 05:45:48;;;;;;;10.60;7.20;;;9.60;89.60;;;;;;5034000;28;21015;-72
2022/03/15 05:48:17;;;;;;;9.57;7.53;;;9.60;89.80;;;;;;5034294;28;20513;-71
2022/03/15 05:50:43;;;;;;;14.40;8.00;;;9.70;89.90;;;;;;5034376;28;20854;-72
2022/03/15 05:53:10;;;;;;;16.30;8.07;;;9.60;89.90;;;;;;5034167;28;20450;-72
2022/03/15 05:55:38;;;;;;;9.83;8.03;;;9.60;90.00;;;;;;5034075;28;20478;-71
2022/03/15 05:58:06;;;;;;;15.90;7.90;;;9.60;90.00;;;;;;5034311;28;20787;-71
2022/03/15 06:00:33;;;;;;;9.33;8.33;;;9.60;90.00;;;;;;5034467;28;20467;-71
2022/03/15 06:03:00;;;;;;;13.57;7.63;;;9.60;90.10;;;;;;5033524;28;20895;-71
2022/03/15 06:05:28;;;;;;;13.70;8.10;;;9.70;90.00;;;;;;5033639;28;20477;-71
2022/03/15 06:07:55;;;;;;;15.60;9.47;;;9.70;89.90;;;;;;5033468;28;20482;-71
2022/03/15 06:10:23;;;;;;;13.13;8.47;;;9.70;90.00;;;;;;5032976;28;20494;-72
2022/03/15 06:12:51;;;;;;;7.20;6.50;;;9.70;90.00;;;;;;5033249;28;20454;-71
2022/03/15 06:15:19;;;;;;;16.70;8.50;;;9.70;90.00;;;;;;5033513;28;20582;-72
2022/03/15 06:17:48;;;;;;;12.80;10.23;;;9.70;89.90;;;;;;5033492;28;20427;-72
2022/03/15 06:20:16;;;;;;;13.63;8.60;;;9.70;89.90;;;;;;5033281;28;20873;-71
2022/03/15 06:22:46;;;;;;;11.43;9.10;;;9.70;90.00;;;;;;5033280;28;20450;-71
2022/03/15 06:25:13;;;;;;;11.60;7.50;;;9.70;89.90;;;;;;5033087;28;20474;-72
2022/03/15 06:27:40;;;;;;;13.57;8.70;;;9.80;90.00;;;;;;5033104;28;20478;-73
2022/03/15 06:30:08;;;;;;;10.67;7.40;;;9.80;90.00;;;;;;5033464;28;20472;-71
2022/03/15 06:32:35;;;;;;;15.13;6.80;;;9.80;90.00;;;;;;5033031;28;20453;-71
2022/03/15 06:35:07;;;;;;;10.73;8.50;;;9.80;89.80;;;;;;5033161;28;20481;-71
2022/03/15 06:37:39;;;;;;;9.07;7.93;;;9.80;89.60;;;;;;5033246;28;20801;-73
2022/03/15 06:40:08;;;;;;;8.27;6.83;;;9.80;89.70;;;;;;5033573;28;20434;-71
2022/03/15 06:42:35;;;;;;;12.00;7.60;;;9.80;89.50;;;;;;5033004;28;20508;-71
2022/03/15 06:45:03;;;;;;;8.43;6.87;;;9.90;89.30;;;;;;5033349;28;20838;-71
2022/03/15 06:47:29;;;;;;;11.30;5.90;;;9.90;89.00;;;;;;5036604;28;20482;-70
2022/03/15 06:49:56;;;;;;;14.37;7.37;;;9.90;88.80;;;;;;5036798;28;20458;-70
2022/03/15 06:52:23;;;;;;;13.20;6.83;;;9.90;89.00;;;;;;5036497;28;20457;-71
2022/03/15 06:54:50;;;;;;;9.83;7.83;;;9.90;89.10;;;;;;5036536;28;20470;-70
2022/03/15 06:57:18;;;;;;;9.90;7.60;;;9.90;89.20;;;;;;5036366;28;20500;-70
2022/03/15 06:59:45;;;;;;;10.53;7.00;;;9.90;89.30;;;;;;5036496;28;20454;-70
2022/03/15 07:02:13;;;;;;;10.33;6.90;;;10.00;88.00;;;;;;5036602;28;20454;-70
2022/03/15 07:04:40;;;;;;;11.70;7.10;;;10.00;87.90;;;;;;5036130;28;21018;-70
2022/03/15 07:07:07;;;;;;;7.23;6.53;;;10.10;87.90;;;;;;5036185;28;20537;-70
2022/03/15 07:09:34;;;;;;;14.43;6.77;;;10.10;87.60;;;;;;5036115;28;20450;-70
2022/03/15 07:12:01;;;;;;;14.20;6.77;;;10.10;87.50;;;;;;5035936;28;20465;-71
2022/03/15 07:14:29;;;;;;;11.23;6.20;;;10.20;87.30;;;;;;5036226;28;20474;-70
2022/03/15 07:16:56;;;;;;;7.43;5.70;;;10.20;87.10;;;;;;5036278;28;20453;-70
2022/03/15 07:19:22;;;;;;;9.17;6.60;;;10.20;87.00;;;;;;5036109;28;20554;-70
2022/03/15 07:21:49;;;;;;;9.33;7.07;;;10.30;87.00;;;;;;5036003;28;20450;-70
2022/03/15 07:24:16;;;;;;;9.27;6.13;;;10.30;86.90;;;;;;5035813;28;20470;-71
2022/03/15 07:26:43;;;;;;;6.30;5.70;;;10.30;86.90;;;;;;5036153;28;20462;-71
2022/03/15 07:29:09;;;;;;;9.80;6.20;;;10.30;86.70;;;;;;5035458;28;20486;-70
2022/03/15 07:31:38;;;;;;;14.10;5.50;;;10.40;86.50;;;;;;5036006;28;20450;-70
2022/03/15 07:34:04;;;;;;;9.93;6.43;;;10.40;86.50;;;;;;5035884;28;20459;-70
2022/03/15 07:36:32;;;;;;;11.27;6.10;;;10.40;86.50;;;;;;5035932;28;20454;-70
2022/03/15 07:38:59;;;;;;;10.73;6.90;;;10.50;86.50;;;;;;5035761;28;20442;-70
2022/03/15 07:41:26;;;;;;;13.43;5.10;;;10.50;86.50;;;;;;5035840;28;20454;-70
2022/03/15 07:43:53;;;;;;;10.93;6.97;;;10.50;86.40;;;;;;5035963;28;20545;-70
2022/03/15 07:46:20;;;;;;;8.37;6.50;;;10.60;86.50;;;;;;5035497;28;20446;-70
2022/03/15 07:48:48;;;;;;;9.23;6.43;;;10.60;86.60;;;;;;5035664;28;20529;-71
2022/03/15 07:51:15;;;;;;;9.03;6.30;;;10.60;86.70;;;;;;5035564;28;20501;-70
2022/03/15 07:53:41;;;;;;;12.50;7.47;;;10.70;86.70;;;;;;5035549;28;20810;-71
2022/03/15 07:56:08;;;;;;;11.80;8.07;;;10.70;86.40;;;;;;5035452;28;20848;-70
2022/03/15 07:58:35;;;;;;;18.37;8.03;;;10.70;86.20;;;;;;5035185;28;20454;-70
2022/03/15 08:01:02;;;;;;;10.47;7.30;;;10.70;86.00;;;;;;5035705;28;20451;-70
2022/03/15 08:03:29;;;;;;;12.20;7.47;;;10.80;86.00;;;;;;5035168;28;20447;-70
2022/03/15 08:05:57;;;;;;;12.23;7.73;;;10.80;85.90;;;;;;5034938;28;20471;-70
2022/03/15 08:08:24;;;;;;;13.10;7.17;;;10.80;85.50;;;;;;5034765;28;20895;-70
2022/03/15 08:10:50;;;;;;;13.80;8.00;;;10.80;85.40;;;;;;5035096;28;20454;-71
2022/03/15 08:13:18;;;;;;;9.57;7.07;;;10.90;85.40;;;;;;5034459;28;20455;-70
2022/03/15 08:15:45;;;;;;;11.80;8.07;;;10.90;85.40;;;;;;5035119;28;20507;-70
2022/03/15 08:18:12;;;;;;;15.37;9.33;;;10.90;85.10;;;;;;5034640;28;20984;-71
2022/03/15 08:20:40;;;;;;;12.70;8.30;;;10.90;85.20;;;;;;5034839;28;20455;-70
2022/03/15 08:23:10;;;;;;;11.77;8.93;;;11.00;85.40;;;;;;5034884;28;20454;-70
2022/03/15 08:25:37;;;;;;;12.53;10.27;;;11.00;85.40;;;;;;5035411;28;20506;-70
2022/03/15 08:28:04;;;;;;;14.53;8.83;;;11.00;85.00;;;;;;5034681;28;20482;-70
2022/03/15 08:30:31;;;;;;;12.50;7.30;;;11.00;84.90;;;;;;5034547;28;20481;-70
2022/03/15 08:32:58;;;;;;;17.30;8.47;;;11.10;84.90;;;;;;5034817;28;20454;-70
2022/03/15 08:35:25;;;;;;;14.73;8.00;;;11.10;84.90;;;;;;5034687;28;20508;-70
2022/03/15 08:37:52;;;;;;;11.60;7.00;;;11.10;84.90;;;;;;5034728;28;20450;-71
2022/03/15 08:40:22;;;;;;;8.40;6.67;;;11.20;84.80;;;;;;5034373;28;20450;-71
2022/03/15 08:42:48;;;;;;;16.73;8.60;;;11.20;84.80;;;;;;5034429;28;20446;-70
2022/03/15 08:45:15;;;;;;;10.60;7.20;;;11.30;84.80;;;;;;5034359;28;20992;-70
2022/03/15 08:47:42;;;;;;;9.13;6.50;;;11.30;84.90;;;;;;5034420;28;20569;-70
2022/03/15 08:50:11;;;;;;;9.87;6.80;;;11.30;83.50;;;;;;5034378;28;20450;-70
2022/03/15 08:52:37;;;;;;;11.33;5.73;;;11.30;83.60;;;;;;5034065;28;20462;-70
2022/03/15 08:55:05;;;;;;;10.03;5.80;;;11.30;83.90;;;;;;5034365;28;20482;-71
2022/03/15 08:57:33;;;;;;;9.20;4.83;;;11.30;83.40;;;;;;5034038;28;20961;-70
2022/03/15 09:00:00;;;;;;;9.90;5.43;;;11.30;83.10;;;;;;5034274;28;20450;-71
2022/03/15 09:02:27;;;;;;;12.50;5.67;;;11.30;82.70;;;;;;5034242;28;20454;-71
2022/03/15 09:04:54;;;;;;;7.37;6.07;;;11.30;82.80;;;;;;5034184;28;20466;-71
2022/03/15 09:07:21;;;;;;;7.47;5.37;;;11.30;82.70;;;;;;5034178;28;20459;-71
2022/03/15 09:09:48;;;;;;;13.03;6.33;;;11.30;83.40;;;;;;5033009;28;20992;-70
2022/03/15 09:12:16;;;;;;;8.80;5.70;;;11.30;83.80;;;;;;5034143;28;20434;-70
2022/03/15 09:14:44;;;;;;;12.43;7.23;;;11.30;83.90;;;;;;5034083;28;20810;-70
2022/03/15 09:17:11;;;;;;;6.43;5.80;;;11.30;83.80;;;;;;5033787;28;20462;-70
2022/03/15 09:19:40;;;;;;;12.07;5.90;;;11.40;83.50;;;;;;5033965;28;20444;-71
2022/03/15 09:22:07;;;;;;;7.37;6.67;;;11.40;83.50;;;;;;5033912;28;20470;-71
2022/03/15 09:24:36;;;;;;;7.13;6.33;;;11.40;83.40;;;;;;5034125;28;20498;-71
2022/03/15 09:27:04;;;;;;;15.00;7.73;;;11.40;83.10;;;;;;5034029;28;20457;-70
2022/03/15 09:29:31;;;;;;;7.07;6.30;;;11.40;82.80;;;;;;5033846;28;20494;-70
2022/03/15 09:31:59;;;;;;;10.43;6.83;;;11.50;83.10;;;;;;5034108;28;20458;-70
2022/03/15 09:34:27;;;;;;;7.70;6.90;;;11.50;83.50;;;;;;5034442;28;20474;-70
2022/03/15 09:36:54;;;;;;;11.37;7.10;;;11.60;83.60;;;;;;5034584;28;20458;-71
2022/03/15 09:39:21;;;;;;;8.60;6.30;;;11.70;83.80;;;;;;5035128;28;20447;-70
2022/03/15 09:41:51;;;;;;;11.13;6.77;;;11.70;83.90;;;;;;5035053;28;20450;-71
2022/03/15 09:44:19;;;;;;;8.73;5.20;;;11.80;84.40;;;;;;5035140;28;20498;-71
2022/03/15 09:46:51;;;;;;;5.27;4.77;;;11.80;84.50;;;;;;5035293;28;20450;-71
2022/03/15 09:49:20;;;;;;;7.27;5.00;;;11.80;84.60;;;;;;5035498;28;20478;-71
2022/03/15 09:51:48;;;;;;;8.57;5.73;;;11.90;84.80;;;;;;5035134;28;20458;-70
2022/03/15 09:54:17;;;;;;;7.90;6.40;;;12.00;85.00;;;;;;5040548;28;20854;-70
2022/03/15 09:56:44;;;;;;;9.73;6.60;;;12.10;85.40;;;;;;5057366;28;20485;-70
2022/03/15 09:59:14;;;;;;;11.20;6.87;;;12.10;86.20;;;;;;5057302;28;20447;-71
2022/03/15 10:01:43;;;;;;;8.73;6.77;;;12.20;85.20;;;;;;5054647;28;20448;-71
2022/03/15 10:04:09;;;;;;;7.70;6.13;;;12.30;84.60;;;;;;5036645;28;20981;-71
2022/03/15 10:06:39;;;;;;;9.00;6.40;;;12.40;84.50;;;;;;5033477;28;20450;-71
2022/03/15 10:09:06;;;;;;;12.73;6.70;;;12.50;84.20;;;;;;5033477;28;20493;-70
2022/03/15 10:11:33;;;;;;;9.37;6.20;;;12.50;83.80;;;;;;5033334;28;20462;-70
2022/03/15 10:14:00;;;;;;;7.00;5.17;;;12.50;83.20;;;;;;5033348;28;20454;-70
2022/03/15 10:16:31;;;;;;;6.43;4.60;;;12.50;82.80;;;;;;5033285;28;20454;-71
2022/03/15 10:18:59;;;;;;;5.67;4.37;;;12.60;82.40;;;;;;5032939;28;20894;-71
2022/03/15 10:21:37;;;;;;;8.07;5.30;;;12.60;81.80;;;;;;5035719;28;20442;-70
2022/03/15 10:24:08;;;;;;;7.03;4.80;;;12.60;81.50;;;;;;5036950;28;20984;-70
2022/03/15 10:26:38;;;;;;;8.97;5.83;;;12.60;81.70;;;;;;5037013;28;20461;-70
2022/03/15 10:29:05;;;;;;;10.07;5.80;;;12.60;81.30;;;;;;5036695;28;20478;-70
2022/03/15 10:31:32;;;;;;;8.10;5.90;;;12.50;80.80;;;;;;5037004;28;20451;-71
2022/03/15 10:34:01;;;;;;;7.50;6.23;;;12.50;80.70;;;;;;5036757;28;20450;-71
2022/03/15 10:36:37;;;;;;;8.43;4.90;;;12.50;80.50;;;;;;5036998;28;20455;-71
2022/03/15 10:39:06;;;;;;;7.37;5.47;;;12.50;80.80;;;;;;5036603;28;20844;-72
2022/03/15 10:41:45;;;;;;;8.50;6.07;;;12.40;81.70;;;;;;5036549;28;20454;-71
2022/03/15 10:44:20;;;;;;;13.07;5.70;;;12.40;82.20;;;;;;5036955;28;20480;-72
2022/03/15 10:46:59;;;;;;;12.53;6.10;;;12.40;82.30;;;;;;5036905;28;20441;-72
2022/03/15 10:49:26;;;;;;;7.83;6.30;;;12.40;82.80;;;;;;5036659;28;20474;-72
2022/03/15 10:51:53;;;;;;;8.90;5.90;;;12.40;83.20;;;;;;5036738;28;20446;-71
2022/03/15 10:54:24;;;;;;;10.00;6.70;;;12.50;83.40;;;;;;5036541;28;20478;-72
2022/03/15 10:56:57;;;;;;;9.33;5.60;;;12.50;83.80;;;;;;5036666;28;20438;-72
2022/03/15 10:59:23;;;;;;;8.47;5.70;;;12.50;84.00;;;;;;5036601;28;20504;-72
2022/03/15 11:01:51;;;;;;;8.57;6.10;;;12.50;84.80;;;;;;5036496;28;20457;-72
2022/03/15 11:04:19;;;;;;;8.37;5.80;;;12.50;85.00;;;;;;5036440;28;20481;-71
2022/03/15 11:06:47;;;;;;;9.27;6.63;;;12.60;85.20;;;;;;5036096;28;20945;-71
2022/03/15 11:09:19;;;;;;;8.23;5.50;;;12.60;85.80;;;;;;5036209;28;20536;-72
2022/03/15 11:11:53;;;;;;;6.97;6.20;;;12.60;85.90;;;;;;5036022;28;20469;-72
2022/03/15 11:14:32;;;;;;;9.93;6.10;;;12.60;85.90;;;;;;5036143;28;20569;-72
2022/03/15 11:17:01;;;;;;;5.60;5.10;;;12.70;86.40;;;;;;5036357;28;20549;-72
2022/03/15 11:19:29;;;;;;;6.50;5.90;;;12.70;86.50;;;;;;5036095;28;20537;-72
2022/03/15 11:22:00;;;;;;;11.90;6.90;;;12.70;86.40;;;;;;5036046;28;20450;-71
2022/03/15 11:24:30;;;;;;;11.30;8.97;;;12.70;86.30;;;;;;5036039;28;20601;-70
2022/03/15 11:27:00;;;;;;;11.27;9.33;;;12.70;86.40;;;;;;5035956;28;20458;-70
2022/03/15 11:29:27;;;;;;;13.33;9.47;;;12.70;86.60;;;;;;5035893;28;20489;-72
2022/03/15 11:31:56;;;;;;;13.90;10.50;;;12.80;86.80;;;;;;5034813;28;20450;-72
2022/03/15 11:34:25;;;;;;;12.30;9.37;;;12.80;86.90;;;;;;5035624;28;20485;-71
2022/03/15 11:36:53;;;;;;;13.77;9.37;;;12.80;86.80;;;;;;5035530;28;20454;-71
2022/03/15 11:39:20;;;;;;;9.13;7.87;;;12.90;87.00;;;;;;5035416;28;20949;-72
2022/03/15 11:41:47;;;;;;;9.30;8.23;;;12.90;86.60;;;;;;5035357;28;20463;-72
2022/03/15 11:44:25;;;;;;;11.90;8.03;;;13.00;86.40;;;;;;5035782;28;20471;-71
2022/03/15 11:47:00;;;;;;;9.90;7.00;;;13.00;86.00;;;;;;5035345;28;20975;-71
2022/03/15 11:49:35;;;;;;;9.07;7.37;;;13.00;85.70;;;;;;5035545;28;20477;-71
2022/03/15 11:52:17;;;;;;;7.20;6.50;;;13.00;86.00;;;;;;5035614;28;20445;-71
2022/03/15 11:54:51;;;;;;;10.57;7.60;;;13.10;85.40;;;;;;5035034;28;20985;-71
2022/03/15 11:57:26;;;;;;;7.90;7.10;;;13.10;85.30;;;;;;5035439;28;20441;-71
2022/03/15 11:59:57;;;;;;;13.03;7.40;;;13.10;85.40;;;;;;5035523;28;20434;-72
2022/03/15 12:02:29;;;;;;;15.20;8.70;;;13.20;85.60;;;;;;5035409;28;20435;-72
2022/03/15 12:04:57;;;;;;;9.13;8.00;;;13.20;85.90;;;;;;5035262;28;20474;-72
2022/03/15 12:07:43;;;;;;;9.10;7.33;;;13.20;86.20;;;;;;5034865;28;20980;-72
2022/03/15 12:10:10;;;;;;;9.17;7.40;;;13.30;85.20;;;;;;5035031;28;20585;-72
2022/03/15 12:12:41;;;;;;;8.43;6.90;;;13.40;84.60;;;;;;5035135;28;20423;-71
2022/03/15 12:15:15;;;;;;;11.17;6.67;;;13.40;85.00;;;;;;5035057;28;20470;-72
2022/03/15 12:17:42;;;;;;;7.80;6.07;;;13.60;85.00;;;;;;5035134;28;20446;-72
2022/03/15 12:20:16;;;;;;;8.10;5.63;;;13.70;84.60;;;;;;5035150;28;20446;-71
2022/03/15 12:22:47;;;;;;;6.23;5.10;;;13.70;84.20;;;;;;5035050;28;20437;-71
2022/03/15 12:25:17;;;;;;;7.43;6.47;;;13.90;83.90;;;;;;5034849;28;20517;-71
2022/03/15 12:27:46;;;;;;;10.07;7.00;;;13.90;82.80;;;;;;5034875;28;20481;-71
2022/03/15 12:30:26;;;;;;;7.20;5.97;;;14.00;82.60;;;;;;5034774;28;20482;-71
2022/03/15 12:32:54;;;;;;;9.00;7.03;;;14.20;82.70;;;;;;5034811;28;20470;-71
2022/03/15 12:35:24;;;;;;;7.17;4.57;;;14.30;81.80;;;;;;5034476;28;20474;-70
2022/03/15 12:37:52;;;;;;;9.70;6.10;;;14.40;81.50;;;;;;5034425;28;20458;-70
2022/03/15 12:40:30;;;;;;;9.57;5.90;;;14.50;81.10;;;;;;5034778;28;20483;-72
2022/03/15 12:43:01;;;;;;;7.83;5.70;;;14.70;81.20;;;;;;5032942;28;20439;-71
2022/03/15 12:45:30;;;;;;;10.50;5.90;;;14.90;80.50;;;;;;5034389;28;20550;-71
2022/03/15 12:48:05;;;;;;;8.53;5.20;;;15.00;80.10;;;;;;5034437;28;20524;-71